sensor_id;sensor_type;location;lat;lon;timestamp;P1;durP1;ratioP1;P2;durP2;ratioP2
31073;SDS011;17730;53.552;9.940;2022-12-05T00:01:10;57.90;;;25.05;;
31073;SDS011;17730;53.552;9.940;2022-12-05T00:03:39;59.63;;;25.40;;
31073;SDS011;17730;53.552;9.940;2022-12-05T00:06:04;52.13;;;24.13;;
31073;SDS011;17730;53.552;9.940;2022-12-05T00:08:30;59.42;;;25.17;;
31073;SDS011;17730;53.552;9.940;2022-12-05T00:10:56;61.15;;;25.40;;
31073;SDS011;17730;53.552;9.940;2022-12-05T00:13:21;57.47;;;24.52;;
31073;SDS011;17730;53.552;9.940;2022-12-05T00:15:47;49.88;;;23.77;;
31073;SDS011;17730;53.552;9.940;2022-12-05T00:18:12;52.90;;;24.80;;
31073;SDS011;17730;53.552;9.940;2022-12-05T00:20:43;48.65;;;24.17;;
31073;SDS011;17730;53.552;9.940;2022-12-05T00:23:09;55.08;;;24.40;;
31073;SDS011;17730;53.552;9.940;2022-12-05T00:25:35;47.00;;;21.27;;
31073;SDS011;17730;53.552;9.940;2022-12-05T00:28:01;46.63;;;22.10;;
31073;SDS011;17730;53.552;9.940;2022-12-05T00:30:26;48.72;;;23.58;;
31073;SDS011;17730;53.552;9.940;2022-12-05T00:32:52;49.33;;;23.40;;
31073;SDS011;17730;53.552;9.940;2022-12-05T00:35:17;51.70;;;24.13;;
31073;SDS011;17730;53.552;9.940;2022-12-05T00:37:43;51.45;;;23.73;;
31073;SDS011;17730;53.552;9.940;2022-12-05T00:40:09;48.72;;;22.85;;
31073;SDS011;17730;53.552;9.940;2022-12-05T00:42:35;48.25;;;22.67;;
31073;SDS011;17730;53.552;9.940;2022-12-05T00:45:01;48.97;;;22.23;;
31073;SDS011;17730;53.552;9.940;2022-12-05T00:47:26;46.35;;;20.90;;
31073;SDS011;17730;53.552;9.940;2022-12-05T00:49:52;42.50;;;20.08;;
31073;SDS011;17730;53.552;9.940;2022-12-05T00:52:17;42.22;;;21.50;;
31073;SDS011;17730;53.552;9.940;2022-12-05T00:54:43;48.30;;;21.77;;
31073;SDS011;17730;53.552;9.940;2022-12-05T00:57:09;43.08;;;20.17;;
31073;SDS011;17730;53.552;9.940;2022-12-05T00:59:34;44.88;;;21.90;;
31073;SDS011;17730;53.552;9.940;2022-12-05T01:02:00;45.08;;;20.60;;
31073;SDS011;17730;53.552;9.940;2022-12-05T01:04:25;41.60;;;19.30;;
31073;SDS011;17730;53.552;9.940;2022-12-05T01:06:55;42.13;;;21.17;;
31073;SDS011;17730;53.552;9.940;2022-12-05T01:09:21;46.20;;;20.58;;
31073;SDS011;17730;53.552;9.940;2022-12-05T01:11:48;50.45;;;21.10;;
31073;SDS011;17730;53.552;9.940;2022-12-05T01:14:14;42.90;;;22.17;;
31073;SDS011;17730;53.552;9.940;2022-12-05T01:16:42;45.47;;;21.45;;
31073;SDS011;17730;53.552;9.940;2022-12-05T01:19:13;44.22;;;21.02;;
31073;SDS011;17730;53.552;9.940;2022-12-05T01:21:44;41.17;;;20.55;;
31073;SDS011;17730;53.552;9.940;2022-12-05T01:24:11;39.63;;;19.60;;
31073;SDS011;17730;53.552;9.940;2022-12-05T01:26:38;41.20;;;21.40;;
31073;SDS011;17730;53.552;9.940;2022-12-05T01:29:05;40.13;;;19.77;;
31073;SDS011;17730;53.552;9.940;2022-12-05T01:31:32;38.88;;;19.05;;
31073;SDS011;17730;53.552;9.940;2022-12-05T01:33:59;37.55;;;19.00;;
31073;SDS011;17730;53.552;9.940;2022-12-05T01:36:26;38.28;;;19.70;;
31073;SDS011;17730;53.552;9.940;2022-12-05T01:38:53;41.85;;;21.13;;
31073;SDS011;17730;53.552;9.940;2022-12-05T01:41:21;36.58;;;18.92;;
31073;SDS011;17730;53.552;9.940;2022-12-05T01:43:52;36.55;;;19.73;;
31073;SDS011;17730;53.552;9.940;2022-12-05T01:46:27;37.53;;;20.02;;
31073;SDS011;17730;53.552;9.940;2022-12-05T01:48:57;38.83;;;19.77;;
31073;SDS011;17730;53.552;9.940;2022-12-05T01:51:27;39.60;;;19.73;;
31073;SDS011;17730;53.552;9.940;2022-12-05T01:53:53;34.00;;;18.08;;
31073;SDS011;17730;53.552;9.940;2022-12-05T01:56:19;39.88;;;19.88;;
31073;SDS011;17730;53.552;9.940;2022-12-05T01:58:45;40.65;;;19.80;;
31073;SDS011;17730;53.552;9.940;2022-12-05T02:01:12;38.17;;;18.60;;
31073;SDS011;17730;53.552;9.940;2022-12-05T02:03:40;37.08;;;19.80;;
31073;SDS011;17730;53.552;9.940;2022-12-05T02:06:08;38.97;;;19.35;;
31073;SDS011;17730;53.552;9.940;2022-12-05T02:08:34;35.45;;;19.80;;
31073;SDS011;17730;53.552;9.940;2022-12-05T02:11:01;36.47;;;19.70;;
31073;SDS011;17730;53.552;9.940;2022-12-05T02:17:08;35.10;;;19.17;;
31073;SDS011;17730;53.552;9.940;2022-12-05T02:22:21;36.88;;;19.42;;
31073;SDS011;17730;53.552;9.940;2022-12-05T02:30:35;42.85;;;21.83;;
31073;SDS011;17730;53.552;9.940;2022-12-05T02:33:09;38.03;;;19.95;;
31073;SDS011;17730;53.552;9.940;2022-12-05T02:43:43;44.15;;;21.25;;
31073;SDS011;17730;53.552;9.940;2022-12-05T02:46:16;42.05;;;20.23;;
31073;SDS011;17730;53.552;9.940;2022-12-05T02:48:45;44.50;;;21.85;;
31073;SDS011;17730;53.552;9.940;2022-12-05T02:51:12;45.60;;;21.77;;
31073;SDS011;17730;53.552;9.940;2022-12-05T02:53:43;42.20;;;21.60;;
31073;SDS011;17730;53.552;9.940;2022-12-05T02:56:10;46.30;;;21.52;;
31073;SDS011;17730;53.552;9.940;2022-12-05T02:58:38;48.25;;;22.75;;
31073;SDS011;17730;53.552;9.940;2022-12-05T03:01:24;44.55;;;21.67;;
31073;SDS011;17730;53.552;9.940;2022-12-05T03:03:54;46.55;;;22.60;;
31073;SDS011;17730;53.552;9.940;2022-12-05T03:09:04;46.33;;;23.10;;
31073;SDS011;17730;53.552;9.940;2022-12-05T03:11:33;45.67;;;23.42;;
31073;SDS011;17730;53.552;9.940;2022-12-05T03:14:05;45.38;;;22.02;;
31073;SDS011;17730;53.552;9.940;2022-12-05T03:16:41;45.33;;;22.90;;
31073;SDS011;17730;53.552;9.940;2022-12-05T03:22:06;45.90;;;23.90;;
31073;SDS011;17730;53.552;9.940;2022-12-05T03:24:35;48.45;;;22.65;;
31073;SDS011;17730;53.552;9.940;2022-12-05T03:29:38;52.50;;;24.13;;
31073;SDS011;17730;53.552;9.940;2022-12-05T03:32:41;48.22;;;23.02;;
31073;SDS011;17730;53.552;9.940;2022-12-05T03:35:28;49.83;;;23.90;;
31073;SDS011;17730;53.552;9.940;2022-12-05T03:37:57;52.83;;;24.23;;
31073;SDS011;17730;53.552;9.940;2022-12-05T03:43:45;50.45;;;23.90;;
31073;SDS011;17730;53.552;9.940;2022-12-05T03:46:28;49.10;;;23.25;;
31073;SDS011;17730;53.552;9.940;2022-12-05T03:49:01;49.78;;;24.42;;
31073;SDS011;17730;53.552;9.940;2022-12-05T03:51:33;48.90;;;22.77;;
31073;SDS011;17730;53.552;9.940;2022-12-05T03:54:05;50.95;;;24.38;;
31073;SDS011;17730;53.552;9.940;2022-12-05T03:56:44;48.83;;;23.70;;
31073;SDS011;17730;53.552;9.940;2022-12-05T04:01:42;52.92;;;24.70;;
31073;SDS011;17730;53.552;9.940;2022-12-05T04:04:23;57.15;;;27.95;;
31073;SDS011;17730;53.552;9.940;2022-12-05T04:06:52;53.35;;;25.50;;
31073;SDS011;17730;53.552;9.940;2022-12-05T04:09:22;54.13;;;24.98;;
31073;SDS011;17730;53.552;9.940;2022-12-05T04:11:54;54.75;;;25.83;;
31073;SDS011;17730;53.552;9.940;2022-12-05T04:14:45;57.20;;;26.00;;
31073;SDS011;17730;53.552;9.940;2022-12-05T04:17:16;52.72;;;25.85;;
31073;SDS011;17730;53.552;9.940;2022-12-05T04:22:57;54.35;;;24.98;;
31073;SDS011;17730;53.552;9.940;2022-12-05T04:25:23;55.15;;;25.77;;
31073;SDS011;17730;53.552;9.940;2022-12-05T04:30:36;55.10;;;25.67;;
31073;SDS011;17730;53.552;9.940;2022-12-05T04:35:40;57.22;;;26.88;;
31073;SDS011;17730;53.552;9.940;2022-12-05T04:38:16;52.15;;;25.27;;
31073;SDS011;17730;53.552;9.940;2022-12-05T04:41:10;57.70;;;27.80;;
31073;SDS011;17730;53.552;9.940;2022-12-05T04:43:40;57.65;;;27.05;;
31073;SDS011;17730;53.552;9.940;2022-12-05T04:46:09;55.05;;;26.58;;
31073;SDS011;17730;53.552;9.940;2022-12-05T04:48:37;63.63;;;26.90;;
31073;SDS011;17730;53.552;9.940;2022-12-05T04:51:06;55.92;;;26.45;;
31073;SDS011;17730;53.552;9.940;2022-12-05T04:53:36;58.42;;;25.38;;
31073;SDS011;17730;53.552;9.940;2022-12-05T04:56:06;59.45;;;26.00;;
31073;SDS011;17730;53.552;9.940;2022-12-05T04:58:33;57.78;;;26.92;;
31073;SDS011;17730;53.552;9.940;2022-12-05T05:01:21;53.90;;;24.77;;
31073;SDS011;17730;53.552;9.940;2022-12-05T05:04:01;59.50;;;25.52;;
31073;SDS011;17730;53.552;9.940;2022-12-05T05:06:32;61.17;;;25.48;;
31073;SDS011;17730;53.552;9.940;2022-12-05T05:09:00;58.47;;;26.08;;
31073;SDS011;17730;53.552;9.940;2022-12-05T05:11:30;69.88;;;27.02;;
31073;SDS011;17730;53.552;9.940;2022-12-05T05:13:58;61.58;;;25.58;;
31073;SDS011;17730;53.552;9.940;2022-12-05T05:16:28;59.95;;;25.35;;
31073;SDS011;17730;53.552;9.940;2022-12-05T05:18:56;61.55;;;25.90;;
31073;SDS011;17730;53.552;9.940;2022-12-05T05:23:49;61.67;;;25.45;;
31073;SDS011;17730;53.552;9.940;2022-12-05T05:26:14;59.45;;;25.42;;
31073;SDS011;17730;53.552;9.940;2022-12-05T05:28:40;59.70;;;25.55;;
31073;SDS011;17730;53.552;9.940;2022-12-05T05:31:06;62.35;;;24.58;;
31073;SDS011;17730;53.552;9.940;2022-12-05T05:33:33;68.05;;;26.42;;
31073;SDS011;17730;53.552;9.940;2022-12-05T05:36:07;57.00;;;25.00;;
31073;SDS011;17730;53.552;9.940;2022-12-05T05:38:35;65.30;;;25.30;;
31073;SDS011;17730;53.552;9.940;2022-12-05T05:41:02;69.93;;;26.95;;
31073;SDS011;17730;53.552;9.940;2022-12-05T05:43:28;71.97;;;25.88;;
31073;SDS011;17730;53.552;9.940;2022-12-05T05:45:53;62.13;;;25.42;;
31073;SDS011;17730;53.552;9.940;2022-12-05T05:48:19;71.03;;;27.33;;
31073;SDS011;17730;53.552;9.940;2022-12-05T05:50:45;69.85;;;26.88;;
31073;SDS011;17730;53.552;9.940;2022-12-05T05:53:10;75.53;;;28.73;;
31073;SDS011;17730;53.552;9.940;2022-12-05T05:55:39;76.32;;;27.38;;
31073;SDS011;17730;53.552;9.940;2022-12-05T05:58:05;72.05;;;28.55;;
31073;SDS011;17730;53.552;9.940;2022-12-05T06:00:31;75.63;;;26.88;;
31073;SDS011;17730;53.552;9.940;2022-12-05T06:02:57;80.28;;;28.27;;
31073;SDS011;17730;53.552;9.940;2022-12-05T06:05:22;85.13;;;28.02;;
31073;SDS011;17730;53.552;9.940;2022-12-05T06:07:48;75.47;;;29.27;;
31073;SDS011;17730;53.552;9.940;2022-12-05T06:10:16;76.10;;;28.42;;
31073;SDS011;17730;53.552;9.940;2022-12-05T06:12:41;89.00;;;28.77;;
31073;SDS011;17730;53.552;9.940;2022-12-05T06:15:07;81.80;;;27.35;;
31073;SDS011;17730;53.552;9.940;2022-12-05T06:17:33;88.05;;;28.80;;
31073;SDS011;17730;53.552;9.940;2022-12-05T06:19:58;87.13;;;29.77;;
31073;SDS011;17730;53.552;9.940;2022-12-05T06:22:24;84.30;;;28.60;;
31073;SDS011;17730;53.552;9.940;2022-12-05T06:24:50;89.55;;;28.52;;
31073;SDS011;17730;53.552;9.940;2022-12-05T06:27:15;89.75;;;29.98;;
31073;SDS011;17730;53.552;9.940;2022-12-05T06:29:41;86.25;;;29.98;;
31073;SDS011;17730;53.552;9.940;2022-12-05T06:32:06;90.97;;;28.77;;
31073;SDS011;17730;53.552;9.940;2022-12-05T06:34:33;90.72;;;30.80;;
31073;SDS011;17730;53.552;9.940;2022-12-05T06:36:59;86.32;;;30.50;;
31073;SDS011;17730;53.552;9.940;2022-12-05T06:39:25;90.05;;;31.27;;
31073;SDS011;17730;53.552;9.940;2022-12-05T06:41:51;85.43;;;30.58;;
31073;SDS011;17730;53.552;9.940;2022-12-05T06:44:17;94.35;;;29.77;;
31073;SDS011;17730;53.552;9.940;2022-12-05T06:46:42;85.05;;;29.85;;
31073;SDS011;17730;53.552;9.940;2022-12-05T06:49:08;90.45;;;30.85;;
31073;SDS011;17730;53.552;9.940;2022-12-05T06:51:35;87.68;;;29.92;;
31073;SDS011;17730;53.552;9.940;2022-12-05T06:54:00;91.65;;;30.50;;
31073;SDS011;17730;53.552;9.940;2022-12-05T06:56:26;83.85;;;28.27;;
31073;SDS011;17730;53.552;9.940;2022-12-05T06:58:52;84.60;;;28.88;;
31073;SDS011;17730;53.552;9.940;2022-12-05T07:01:20;81.80;;;28.00;;
31073;SDS011;17730;53.552;9.940;2022-12-05T07:04:03;78.75;;;28.67;;
31073;SDS011;17730;53.552;9.940;2022-12-05T07:06:31;87.40;;;29.17;;
31073;SDS011;17730;53.552;9.940;2022-12-05T07:08:57;88.47;;;29.48;;
31073;SDS011;17730;53.552;9.940;2022-12-05T07:11:23;91.53;;;30.88;;
31073;SDS011;17730;53.552;9.940;2022-12-05T07:13:48;97.85;;;32.25;;
31073;SDS011;17730;53.552;9.940;2022-12-05T07:16:14;101.40;;;32.25;;
31073;SDS011;17730;53.552;9.940;2022-12-05T07:18:39;102.75;;;31.52;;
31073;SDS011;17730;53.552;9.940;2022-12-05T07:21:06;111.32;;;33.25;;
31073;SDS011;17730;53.552;9.940;2022-12-05T07:23:34;123.60;;;34.15;;
31073;SDS011;17730;53.552;9.940;2022-12-05T07:26:04;114.60;;;33.85;;
31073;SDS011;17730;53.552;9.940;2022-12-05T07:28:31;106.10;;;33.28;;
31073;SDS011;17730;53.552;9.940;2022-12-05T07:33:26;119.15;;;36.30;;
31073;SDS011;17730;53.552;9.940;2022-12-05T07:35:52;117.68;;;35.83;;
31073;SDS011;17730;53.552;9.940;2022-12-05T07:38:22;126.10;;;35.60;;
31073;SDS011;17730;53.552;9.940;2022-12-05T07:40:48;105.10;;;33.97;;
31073;SDS011;17730;53.552;9.940;2022-12-05T07:43:13;108.13;;;32.60;;
31073;SDS011;17730;53.552;9.940;2022-12-05T07:45:39;107.35;;;32.42;;
31073;SDS011;17730;53.552;9.940;2022-12-05T07:48:04;101.95;;;33.75;;
31073;SDS011;17730;53.552;9.940;2022-12-05T07:50:30;101.35;;;30.77;;
31073;SDS011;17730;53.552;9.940;2022-12-05T07:52:55;87.25;;;28.40;;
31073;SDS011;17730;53.552;9.940;2022-12-05T07:55:21;95.38;;;28.58;;
31073;SDS011;17730;53.552;9.940;2022-12-05T07:57:47;84.75;;;28.42;;
31073;SDS011;17730;53.552;9.940;2022-12-05T08:00:12;77.72;;;26.45;;
31073;SDS011;17730;53.552;9.940;2022-12-05T08:02:38;75.35;;;28.05;;
31073;SDS011;17730;53.552;9.940;2022-12-05T08:05:04;74.13;;;24.73;;
31073;SDS011;17730;53.552;9.940;2022-12-05T08:07:30;76.32;;;26.70;;
31073;SDS011;17730;53.552;9.940;2022-12-05T08:09:55;79.05;;;26.42;;
31073;SDS011;17730;53.552;9.940;2022-12-05T08:12:21;83.95;;;28.55;;
31073;SDS011;17730;53.552;9.940;2022-12-05T08:14:47;73.90;;;25.67;;
31073;SDS011;17730;53.552;9.940;2022-12-05T08:17:12;71.90;;;26.02;;
31073;SDS011;17730;53.552;9.940;2022-12-05T08:19:38;79.07;;;26.15;;
31073;SDS011;17730;53.552;9.940;2022-12-05T08:22:03;68.30;;;24.58;;
31073;SDS011;17730;53.552;9.940;2022-12-05T08:24:29;66.40;;;23.88;;
31073;SDS011;17730;53.552;9.940;2022-12-05T08:26:55;72.53;;;25.45;;
31073;SDS011;17730;53.552;9.940;2022-12-05T08:29:20;68.15;;;24.27;;
31073;SDS011;17730;53.552;9.940;2022-12-05T08:31:47;62.85;;;22.98;;
31073;SDS011;17730;53.552;9.940;2022-12-05T08:34:15;75.50;;;26.25;;
31073;SDS011;17730;53.552;9.940;2022-12-05T08:36:42;75.75;;;24.10;;
31073;SDS011;17730;53.552;9.940;2022-12-05T08:39:09;77.75;;;25.80;;
31073;SDS011;17730;53.552;9.940;2022-12-05T08:41:38;74.68;;;24.90;;
31073;SDS011;17730;53.552;9.940;2022-12-05T08:44:05;68.00;;;23.08;;
31073;SDS011;17730;53.552;9.940;2022-12-05T08:46:32;69.15;;;24.38;;
31073;SDS011;17730;53.552;9.940;2022-12-05T08:48:59;76.45;;;25.38;;
31073;SDS011;17730;53.552;9.940;2022-12-05T08:51:25;65.97;;;24.20;;
31073;SDS011;17730;53.552;9.940;2022-12-05T08:53:51;70.57;;;23.73;;
31073;SDS011;17730;53.552;9.940;2022-12-05T08:56:17;74.50;;;26.58;;
31073;SDS011;17730;53.552;9.940;2022-12-05T08:58:43;66.40;;;24.30;;
31073;SDS011;17730;53.552;9.940;2022-12-05T09:01:18;73.95;;;26.65;;
31073;SDS011;17730;53.552;9.940;2022-12-05T09:03:45;68.63;;;25.52;;
31073;SDS011;17730;53.552;9.940;2022-12-05T09:06:15;79.43;;;27.00;;
31073;SDS011;17730;53.552;9.940;2022-12-05T09:08:44;82.50;;;27.05;;
31073;SDS011;17730;53.552;9.940;2022-12-05T09:11:12;77.32;;;25.42;;
31073;SDS011;17730;53.552;9.940;2022-12-05T09:16:13;88.40;;;27.48;;
31073;SDS011;17730;53.552;9.940;2022-12-05T09:18:40;85.65;;;26.65;;
31073;SDS011;17730;53.552;9.940;2022-12-05T09:21:10;86.55;;;28.73;;
31073;SDS011;17730;53.552;9.940;2022-12-05T09:23:42;84.95;;;28.38;;
31073;SDS011;17730;53.552;9.940;2022-12-05T09:26:09;85.03;;;26.65;;
31073;SDS011;17730;53.552;9.940;2022-12-05T09:28:37;88.90;;;26.70;;
31073;SDS011;17730;53.552;9.940;2022-12-05T09:31:06;81.25;;;27.33;;
31073;SDS011;17730;53.552;9.940;2022-12-05T09:33:36;72.82;;;24.73;;
31073;SDS011;17730;53.552;9.940;2022-12-05T09:36:03;60.47;;;21.88;;
31073;SDS011;17730;53.552;9.940;2022-12-05T09:38:29;66.95;;;23.70;;
31073;SDS011;17730;53.552;9.940;2022-12-05T09:44:09;66.10;;;22.63;;
31073;SDS011;17730;53.552;9.940;2022-12-05T09:47:16;70.35;;;24.30;;
31073;SDS011;17730;53.552;9.940;2022-12-05T09:52:34;66.25;;;23.88;;
31073;SDS011;17730;53.552;9.940;2022-12-05T09:55:10;69.63;;;24.80;;
31073;SDS011;17730;53.552;9.940;2022-12-05T09:57:39;64.22;;;21.88;;
31073;SDS011;17730;53.552;9.940;2022-12-05T10:00:18;56.00;;;21.15;;
31073;SDS011;17730;53.552;9.940;2022-12-05T10:02:57;59.85;;;21.75;;
31073;SDS011;17730;53.552;9.940;2022-12-05T10:05:50;57.33;;;20.35;;
31073;SDS011;17730;53.552;9.940;2022-12-05T10:14:06;56.63;;;19.65;;
31073;SDS011;17730;53.552;9.940;2022-12-05T10:16:44;60.70;;;20.55;;
31073;SDS011;17730;53.552;9.940;2022-12-05T10:19:15;56.38;;;19.50;;
31073;SDS011;17730;53.552;9.940;2022-12-05T10:21:54;66.75;;;19.33;;
31073;SDS011;17730;53.552;9.940;2022-12-05T10:24:28;50.78;;;19.40;;
31073;SDS011;17730;53.552;9.940;2022-12-05T10:27:03;54.70;;;19.30;;
31073;SDS011;17730;53.552;9.940;2022-12-05T10:29:34;45.75;;;18.60;;
31073;SDS011;17730;53.552;9.940;2022-12-05T10:32:11;49.92;;;19.00;;
31073;SDS011;17730;53.552;9.940;2022-12-05T10:34:41;53.42;;;19.63;;
31073;SDS011;17730;53.552;9.940;2022-12-05T10:37:10;56.17;;;18.17;;
31073;SDS011;17730;53.552;9.940;2022-12-05T10:39:46;51.53;;;18.15;;
31073;SDS011;17730;53.552;9.940;2022-12-05T10:42:14;51.85;;;19.40;;
31073;SDS011;17730;53.552;9.940;2022-12-05T10:44:43;57.67;;;19.00;;
31073;SDS011;17730;53.552;9.940;2022-12-05T10:47:09;55.20;;;20.13;;
31073;SDS011;17730;53.552;9.940;2022-12-05T10:49:36;52.72;;;19.48;;
31073;SDS011;17730;53.552;9.940;2022-12-05T10:52:03;51.08;;;19.83;;
31073;SDS011;17730;53.552;9.940;2022-12-05T10:54:29;61.60;;;23.08;;
31073;SDS011;17730;53.552;9.940;2022-12-05T10:59:44;59.28;;;20.50;;
31073;SDS011;17730;53.552;9.940;2022-12-05T11:02:20;59.70;;;20.23;;
31073;SDS011;17730;53.552;9.940;2022-12-05T11:04:56;54.55;;;21.02;;
31073;SDS011;17730;53.552;9.940;2022-12-05T11:12:59;58.47;;;21.35;;
31073;SDS011;17730;53.552;9.940;2022-12-05T11:15:27;52.65;;;20.35;;
31073;SDS011;17730;53.552;9.940;2022-12-05T11:17:56;59.05;;;22.15;;
31073;SDS011;17730;53.552;9.940;2022-12-05T11:20:41;59.45;;;21.00;;
31073;SDS011;17730;53.552;9.940;2022-12-05T11:26:03;58.75;;;23.00;;
31073;SDS011;17730;53.552;9.940;2022-12-05T11:28:38;60.20;;;20.02;;
31073;SDS011;17730;53.552;9.940;2022-12-05T11:31:06;59.20;;;21.58;;
31073;SDS011;17730;53.552;9.940;2022-12-05T11:36:45;53.35;;;19.98;;
31073;SDS011;17730;53.552;9.940;2022-12-05T11:39:17;51.90;;;21.35;;
31073;SDS011;17730;53.552;9.940;2022-12-05T11:44:31;49.28;;;20.15;;
31073;SDS011;17730;53.552;9.940;2022-12-05T11:55:23;38.47;;;16.85;;
31073;SDS011;17730;53.552;9.940;2022-12-05T12:06:14;46.75;;;19.52;;
31073;SDS011;17730;53.552;9.940;2022-12-05T12:09:13;42.13;;;18.77;;
31073;SDS011;17730;53.552;9.940;2022-12-05T12:11:48;41.08;;;17.08;;
31073;SDS011;17730;53.552;9.940;2022-12-05T12:39:09;51.13;;;20.73;;
31073;SDS011;17730;53.552;9.940;2022-12-05T12:41:52;38.42;;;16.92;;
31073;SDS011;17730;53.552;9.940;2022-12-05T12:47:00;36.08;;;16.00;;
31073;SDS011;17730;53.552;9.940;2022-12-05T12:49:37;36.70;;;16.55;;
31073;SDS011;17730;53.552;9.940;2022-12-05T12:52:14;34.42;;;16.15;;
31073;SDS011;17730;53.552;9.940;2022-12-05T12:55:12;27.85;;;13.52;;
31073;SDS011;17730;53.552;9.940;2022-12-05T13:05:45;35.63;;;16.08;;
31073;SDS011;17730;53.552;9.940;2022-12-05T13:08:20;32.25;;;14.93;;
31073;SDS011;17730;53.552;9.940;2022-12-05T13:10:59;31.38;;;15.07;;
31073;SDS011;17730;53.552;9.940;2022-12-05T13:13:31;33.17;;;15.13;;
31073;SDS011;17730;53.552;9.940;2022-12-05T13:16:02;35.78;;;15.10;;
31073;SDS011;17730;53.552;9.940;2022-12-05T13:18:31;32.55;;;14.88;;
31073;SDS011;17730;53.552;9.940;2022-12-05T13:23:40;33.60;;;16.05;;
31073;SDS011;17730;53.552;9.940;2022-12-05T13:26:11;35.28;;;16.10;;
31073;SDS011;17730;53.552;9.940;2022-12-05T13:28:38;32.20;;;13.60;;
31073;SDS011;17730;53.552;9.940;2022-12-05T13:31:17;32.75;;;15.27;;
31073;SDS011;17730;53.552;9.940;2022-12-05T13:33:44;32.67;;;14.65;;
31073;SDS011;17730;53.552;9.940;2022-12-05T13:36:13;33.25;;;16.05;;
31073;SDS011;17730;53.552;9.940;2022-12-05T13:39:21;38.33;;;17.48;;
31073;SDS011;17730;53.552;9.940;2022-12-05T13:42:05;30.42;;;15.45;;
31073;SDS011;17730;53.552;9.940;2022-12-05T13:44:48;38.30;;;17.77;;
31073;SDS011;17730;53.552;9.940;2022-12-05T13:52:26;30.95;;;14.50;;
31073;SDS011;17730;53.552;9.940;2022-12-05T13:55:01;32.55;;;17.08;;
31073;SDS011;17730;53.552;9.940;2022-12-05T14:05:54;31.08;;;13.73;;
31073;SDS011;17730;53.552;9.940;2022-12-05T14:08:01;31.92;;;14.95;;
31073;SDS011;17730;53.552;9.940;2022-12-05T14:15:40;31.42;;;14.93;;
31073;SDS011;17730;53.552;9.940;2022-12-05T14:18:11;30.98;;;13.90;;
31073;SDS011;17730;53.552;9.940;2022-12-05T14:24:01;31.45;;;14.98;;
31073;SDS011;17730;53.552;9.940;2022-12-05T14:34:48;29.58;;;13.57;;
31073;SDS011;17730;53.552;9.940;2022-12-05T14:39:51;29.27;;;13.73;;
31073;SDS011;17730;53.552;9.940;2022-12-05T14:42:22;23.92;;;12.57;;
31073;SDS011;17730;53.552;9.940;2022-12-05T14:44:56;24.13;;;12.27;;
31073;SDS011;17730;53.552;9.940;2022-12-05T14:47:31;25.58;;;12.50;;
31073;SDS011;17730;53.552;9.940;2022-12-05T14:52:44;27.00;;;13.13;;
31073;SDS011;17730;53.552;9.940;2022-12-05T15:04:08;22.60;;;10.93;;
31073;SDS011;17730;53.552;9.940;2022-12-05T15:07:08;28.92;;;15.18;;
31073;SDS011;17730;53.552;9.940;2022-12-05T15:12:15;23.10;;;11.23;;
31073;SDS011;17730;53.552;9.940;2022-12-05T15:14:47;24.63;;;11.65;;
31073;SDS011;17730;53.552;9.940;2022-12-05T15:17:29;24.30;;;12.75;;
31073;SDS011;17730;53.552;9.940;2022-12-05T15:20:13;22.45;;;11.48;;
31073;SDS011;17730;53.552;9.940;2022-12-05T15:22:59;23.02;;;11.25;;
31073;SDS011;17730;53.552;9.940;2022-12-05T15:25:31;27.15;;;11.32;;
31073;SDS011;17730;53.552;9.940;2022-12-05T15:27:58;21.13;;;11.32;;
31073;SDS011;17730;53.552;9.940;2022-12-05T15:30:27;22.50;;;11.38;;
31073;SDS011;17730;53.552;9.940;2022-12-05T15:32:54;26.52;;;11.05;;
31073;SDS011;17730;53.552;9.940;2022-12-05T15:35:19;22.63;;;11.15;;
31073;SDS011;17730;53.552;9.940;2022-12-05T15:40:31;36.80;;;15.73;;
31073;SDS011;17730;53.552;9.940;2022-12-05T15:43:01;18.92;;;9.35;;
31073;SDS011;17730;53.552;9.940;2022-12-05T15:50:37;28.67;;;11.77;;
31073;SDS011;17730;53.552;9.940;2022-12-05T15:55:35;21.80;;;10.73;;
31073;SDS011;17730;53.552;9.940;2022-12-05T16:00:46;26.13;;;10.35;;
31073;SDS011;17730;53.552;9.940;2022-12-05T16:03:17;21.73;;;11.13;;
31073;SDS011;17730;53.552;9.940;2022-12-05T16:08:16;21.58;;;10.15;;
31073;SDS011;17730;53.552;9.940;2022-12-05T16:10:42;23.65;;;11.10;;
31073;SDS011;17730;53.552;9.940;2022-12-05T16:13:11;22.92;;;11.27;;
31073;SDS011;17730;53.552;9.940;2022-12-05T16:15:43;22.55;;;10.70;;
31073;SDS011;17730;53.552;9.940;2022-12-05T16:18:21;19.90;;;10.82;;
31073;SDS011;17730;53.552;9.940;2022-12-05T16:20:50;17.17;;;8.73;;
31073;SDS011;17730;53.552;9.940;2022-12-05T16:23:32;17.30;;;9.13;;
31073;SDS011;17730;53.552;9.940;2022-12-05T16:28:57;19.85;;;10.73;;
31073;SDS011;17730;53.552;9.940;2022-12-05T16:31:25;18.25;;;9.93;;
31073;SDS011;17730;53.552;9.940;2022-12-05T16:36:30;19.38;;;10.73;;
31073;SDS011;17730;53.552;9.940;2022-12-05T16:39:00;22.90;;;10.73;;
31073;SDS011;17730;53.552;9.940;2022-12-05T16:41:35;25.75;;;11.98;;
31073;SDS011;17730;53.552;9.940;2022-12-05T16:44:02;22.38;;;11.90;;
31073;SDS011;17730;53.552;9.940;2022-12-05T16:51:52;21.95;;;11.75;;
31073;SDS011;17730;53.552;9.940;2022-12-05T16:54:22;24.38;;;12.27;;
31073;SDS011;17730;53.552;9.940;2022-12-05T16:56:48;28.13;;;12.93;;
31073;SDS011;17730;53.552;9.940;2022-12-05T16:59:21;30.13;;;14.10;;
31073;SDS011;17730;53.552;9.940;2022-12-05T17:01:58;24.70;;;12.38;;
31073;SDS011;17730;53.552;9.940;2022-12-05T17:04:25;25.02;;;12.75;;
31073;SDS011;17730;53.552;9.940;2022-12-05T17:06:51;51.38;;;21.83;;
31073;SDS011;17730;53.552;9.940;2022-12-05T17:09:17;25.60;;;13.93;;
31073;SDS011;17730;53.552;9.940;2022-12-05T17:11:43;25.83;;;13.63;;
31073;SDS011;17730;53.552;9.940;2022-12-05T17:14:11;26.60;;;13.63;;
31073;SDS011;17730;53.552;9.940;2022-12-05T17:16:39;33.55;;;15.98;;
31073;SDS011;17730;53.552;9.940;2022-12-05T17:19:05;35.35;;;16.70;;
31073;SDS011;17730;53.552;9.940;2022-12-05T17:21:31;26.83;;;13.35;;
31073;SDS011;17730;53.552;9.940;2022-12-05T17:23:58;24.15;;;12.30;;
31073;SDS011;17730;53.552;9.940;2022-12-05T17:26:24;22.90;;;11.10;;
31073;SDS011;17730;53.552;9.940;2022-12-05T17:28:50;19.38;;;10.93;;
31073;SDS011;17730;53.552;9.940;2022-12-05T17:31:20;18.35;;;10.02;;
31073;SDS011;17730;53.552;9.940;2022-12-05T17:33:47;21.77;;;11.03;;
31073;SDS011;17730;53.552;9.940;2022-12-05T17:36:13;19.48;;;9.80;;
31073;SDS011;17730;53.552;9.940;2022-12-05T17:38:40;25.40;;;12.20;;
31073;SDS011;17730;53.552;9.940;2022-12-05T17:41:06;22.40;;;10.63;;
31073;SDS011;17730;53.552;9.940;2022-12-05T17:43:32;21.77;;;12.00;;
31073;SDS011;17730;53.552;9.940;2022-12-05T17:46:01;28.85;;;14.98;;
31073;SDS011;17730;53.552;9.940;2022-12-05T17:48:27;24.00;;;13.00;;
31073;SDS011;17730;53.552;9.940;2022-12-05T17:50:53;22.35;;;11.70;;
31073;SDS011;17730;53.552;9.940;2022-12-05T17:53:21;24.20;;;11.02;;
31073;SDS011;17730;53.552;9.940;2022-12-05T17:55:48;22.90;;;11.73;;
31073;SDS011;17730;53.552;9.940;2022-12-05T17:58:14;24.13;;;13.32;;
31073;SDS011;17730;53.552;9.940;2022-12-05T18:00:41;21.77;;;11.82;;
31073;SDS011;17730;53.552;9.940;2022-12-05T18:03:17;21.52;;;11.57;;